sensor_id;sensor_type;location;lat;lon;timestamp;pressure;altitude;pressure_sealevel;temperature;humidity
19096;BME280;9680;52.520;13.332;2023-07-31T00:00:13;100825.63;;;16.30;88.24
19096;BME280;9680;52.520;13.332;2023-07-31T00:02:41;100819.88;;;16.24;88.80
19096;BME280;9680;52.520;13.332;2023-07-31T00:05:08;100816.75;;;16.17;89.39
19096;BME280;9680;52.520;13.332;2023-07-31T00:07:36;100817.06;;;16.12;90.13
19096;BME280;9680;52.520;13.332;2023-07-31T00:10:03;100820.69;;;16.10;89.89
19096;BME280;9680;52.520;13.332;2023-07-31T00:12:30;100814.69;;;16.08;90.15
19096;BME280;9680;52.520;13.332;2023-07-31T00:14:57;100816.31;;;16.10;90.25
19096;BME280;9680;52.520;13.332;2023-07-31T00:17:23;100820.44;;;16.14;89.92
19096;BME280;9680;52.520;13.332;2023-07-31T00:19:51;100815.75;;;16.20;90.24
19096;BME280;9680;52.520;13.332;2023-07-31T00:22:18;100809.34;;;16.24;90.08
19096;BME280;9680;52.520;13.332;2023-07-31T00:24:45;100813.59;;;16.26;89.88
19096;BME280;9680;52.520;13.332;2023-07-31T00:27:12;100804.66;;;16.29;90.16
19096;BME280;9680;52.520;13.332;2023-07-31T00:29:39;100794.91;;;16.31;89.85
19096;BME280;9680;52.520;13.332;2023-07-31T00:32:07;100790.38;;;16.33;89.70
19096;BME280;9680;52.520;13.332;2023-07-31T00:34:36;100790.31;;;16.35;89.54
19096;BME280;9680;52.520;13.332;2023-07-31T00:37:05;100790.31;;;16.35;89.28
19096;BME280;9680;52.520;13.332;2023-07-31T00:39:34;100795.47;;;16.36;89.22
19096;BME280;9680;52.520;13.332;2023-07-31T00:42:01;100792.63;;;16.39;89.10
19096;BME280;9680;52.520;13.332;2023-07-31T00:44:34;100787.19;;;16.42;89.01
19096;BME280;9680;52.520;13.332;2023-07-31T00:47:01;100792.38;;;16.44;89.06
19096;BME280;9680;52.520;13.332;2023-07-31T00:49:29;100790.28;;;16.49;88.92
19096;BME280;9680;52.520;13.332;2023-07-31T00:51:56;100788.22;;;16.54;89.15
19096;BME280;9680;52.520;13.332;2023-07-31T00:54:26;100789.53;;;16.62;88.78
19096;BME280;9680;52.520;13.332;2023-07-31T00:56:54;100786.69;;;16.65;88.70
19096;BME280;9680;52.520;13.332;2023-07-31T00:59:21;100786.44;;;16.69;88.75
19096;BME280;9680;52.520;13.332;2023-07-31T01:01:48;100776.66;;;16.71;88.90
19096;BME280;9680;52.520;13.332;2023-07-31T01:04:25;100769.41;;;16.75;88.46
19096;BME280;9680;52.520;13.332;2023-07-31T01:07:01;100768.44;;;16.76;88.68
19096;BME280;9680;52.520;13.332;2023-07-31T01:09:37;100775.50;;;16.76;88.78
19096;BME280;9680;52.520;13.332;2023-07-31T01:12:07;100774.47;;;16.78;88.83
19096;BME280;9680;52.520;13.332;2023-07-31T01:14:36;100770.69;;;16.82;88.49
19096;BME280;9680;52.520;13.332;2023-07-31T01:17:02;100765.44;;;16.82;88.94
19096;BME280;9680;52.520;13.332;2023-07-31T01:19:29;100766.28;;;16.83;88.75
19096;BME280;9680;52.520;13.332;2023-07-31T01:24:55;100761.84;;;16.83;89.30
19096;BME280;9680;52.520;13.332;2023-07-31T01:27:30;100761.84;;;16.83;89.63
19096;BME280;9680;52.520;13.332;2023-07-31T01:30:05;100764.47;;;16.83;89.88
19096;BME280;9680;52.520;13.332;2023-07-31T01:32:40;100766.28;;;16.83;89.93
19096;BME280;9680;52.520;13.332;2023-07-31T01:35:07;100773.22;;;16.84;90.51
19096;BME280;9680;52.520;13.332;2023-07-31T01:37:34;100764.41;;;16.85;90.25
19096;BME280;9680;52.520;13.332;2023-07-31T01:40:01;100766.09;;;16.86;90.98
19096;BME280;9680;52.520;13.332;2023-07-31T01:42:30;100754.69;;;16.85;90.72
19096;BME280;9680;52.520;13.332;2023-07-31T01:44:57;100756.31;;;16.88;90.91
19096;BME280;9680;52.520;13.332;2023-07-31T01:47:24;100739.66;;;16.87;90.93
19096;BME280;9680;52.520;13.332;2023-07-31T01:49:52;100749.34;;;16.87;90.79
19096;BME280;9680;52.520;13.332;2023-07-31T01:52:19;100733.47;;;16.88;90.80
19096;BME280;9680;52.520;13.332;2023-07-31T01:54:46;100734.22;;;16.91;90.44
19096;BME280;9680;52.520;13.332;2023-07-31T01:57:13;100733.28;;;16.92;90.52
19096;BME280;9680;52.520;13.332;2023-07-31T01:59:41;100736.75;;;16.92;90.49
19096;BME280;9680;52.520;13.332;2023-07-31T02:02:08;100722.56;;;16.95;90.44
19096;BME280;9680;52.520;13.332;2023-07-31T02:04:35;100722.44;;;16.96;89.73
19096;BME280;9680;52.520;13.332;2023-07-31T02:07:02;100726.03;;;16.95;89.56
19096;BME280;9680;52.520;13.332;2023-07-31T02:09:29;100728.56;;;16.97;89.80
19096;BME280;9680;52.520;13.332;2023-07-31T02:11:55;100732.91;;;16.98;89.87
19096;BME280;9680;52.520;13.332;2023-07-31T02:14:22;100725.03;;;16.98;89.68
19096;BME280;9680;52.520;13.332;2023-07-31T02:16:51;100722.56;;;16.95;89.93
19096;BME280;9680;52.520;13.332;2023-07-31T02:19:18;100719.00;;;16.96;89.92
19096;BME280;9680;52.520;13.332;2023-07-31T02:21:44;100722.41;;;16.98;90.07
19096;BME280;9680;52.520;13.332;2023-07-31T02:24:11;100717.31;;;16.95;90.16
19096;BME280;9680;52.520;13.332;2023-07-31T02:26:38;100716.34;;;16.96;90.46
19096;BME280;9680;52.520;13.332;2023-07-31T02:29:03;100714.66;;;16.95;90.36
19096;BME280;9680;52.520;13.332;2023-07-31T02:31:30;100724.25;;;16.96;90.39
19096;BME280;9680;52.520;13.332;2023-07-31T02:33:58;100715.41;;;16.97;90.43
19096;BME280;9680;52.520;13.332;2023-07-31T02:36:25;100714.66;;;16.95;90.25
19096;BME280;9680;52.520;13.332;2023-07-31T02:38:52;100716.34;;;16.96;89.89
19096;BME280;9680;52.520;13.332;2023-07-31T02:41:19;100710.25;;;16.95;89.91
19096;BME280;9680;52.520;13.332;2023-07-31T02:43:46;100696.25;;;16.95;89.91
19096;BME280;9680;52.520;13.332;2023-07-31T02:46:12;100701.59;;;16.93;89.34
19096;BME280;9680;52.520;13.332;2023-07-31T02:48:40;100698.97;;;16.93;89.65
19096;BME280;9680;52.520;13.332;2023-07-31T02:51:08;100690.25;;;16.93;89.85
19096;BME280;9680;52.520;13.332;2023-07-31T02:53:35;100700.03;;;16.91;89.51
19096;BME280;9680;52.520;13.332;2023-07-31T02:56:01;100701.59;;;16.93;89.62
19096;BME280;9680;52.520;13.332;2023-07-31T02:58:28;100701.41;;;16.96;89.39
19096;BME280;9680;52.520;13.332;2023-07-31T03:00:55;100696.34;;;16.93;89.50
19096;BME280;9680;52.520;13.332;2023-07-31T03:03:21;100697.28;;;16.92;89.87
19096;BME280;9680;52.520;13.332;2023-07-31T03:05:48;100702.47;;;16.94;89.80
19096;BME280;9680;52.520;13.332;2023-07-31T03:08:16;100704.22;;;16.93;89.63
19096;BME280;9680;52.520;13.332;2023-07-31T03:10:43;100695.31;;;16.96;89.46
19096;BME280;9680;52.520;13.332;2023-07-31T03:13:10;100697.00;;;16.97;89.53
19096;BME280;9680;52.520;13.332;2023-07-31T03:15:37;100696.25;;;16.95;89.45
19096;BME280;9680;52.520;13.332;2023-07-31T03:18:04;100693.63;;;16.95;89.77
19096;BME280;9680;52.520;13.332;2023-07-31T03:20:30;100695.41;;;16.94;89.72
19096;BME280;9680;52.520;13.332;2023-07-31T03:22:57;100688.44;;;16.93;90.17
19096;BME280;9680;52.520;13.332;2023-07-31T03:25:25;100693.72;;;16.93;90.04
19096;BME280;9680;52.520;13.332;2023-07-31T03:27:52;100688.25;;;16.96;89.79
19096;BME280;9680;52.520;13.332;2023-07-31T03:30:19;100682.16;;;16.96;89.57
19096;BME280;9680;52.520;13.332;2023-07-31T03:32:46;100676.97;;;16.94;89.61
19096;BME280;9680;52.520;13.332;2023-07-31T03:35:13;100682.34;;;16.93;89.29
19096;BME280;9680;52.520;13.332;2023-07-31T03:37:39;100679.59;;;16.94;89.01
19096;BME280;9680;52.520;13.332;2023-07-31T03:40:07;100676.97;;;16.94;89.09
19096;BME280;9680;52.520;13.332;2023-07-31T03:42:35;100678.66;;;16.95;89.27
19096;BME280;9680;52.520;13.332;2023-07-31T03:45:02;100667.31;;;16.95;89.33
19096;BME280;9680;52.520;13.332;2023-07-31T03:47:29;100669.00;;;16.96;89.18
19096;BME280;9680;52.520;13.332;2023-07-31T03:49:56;100668.16;;;16.95;89.17
19096;BME280;9680;52.520;13.332;2023-07-31T03:52:23;100661.09;;;16.96;89.26
19096;BME280;9680;52.520;13.332;2023-07-31T03:54:49;100665.44;;;16.97;89.23
19096;BME280;9680;52.520;13.332;2023-07-31T03:57:16;100660.06;;;16.98;89.04
19096;BME280;9680;52.520;13.332;2023-07-31T03:59:44;100659.88;;;17.01;89.00
19096;BME280;9680;52.520;13.332;2023-07-31T04:02:11;100656.28;;;17.02;88.62
19096;BME280;9680;52.520;13.332;2023-07-31T04:04:39;100657.03;;;17.05;88.61
19096;BME280;9680;52.520;13.332;2023-07-31T04:07:06;100660.53;;;17.05;88.38
19096;BME280;9680;52.520;13.332;2023-07-31T04:09:33;100662.22;;;17.06;88.05
19096;BME280;9680;52.520;13.332;2023-07-31T04:12:00;100660.41;;;17.07;87.67
19096;BME280;9680;52.520;13.332;2023-07-31T04:14:26;100655.13;;;17.07;87.50
19096;BME280;9680;52.520;13.332;2023-07-31T04:16:54;100652.31;;;17.10;87.52
19096;BME280;9680;52.520;13.332;2023-07-31T04:19:21;100646.84;;;17.13;87.33
19096;BME280;9680;52.520;13.332;2023-07-31T04:21:48;100646.63;;;17.16;87.18
19096;BME280;9680;52.520;13.332;2023-07-31T04:24:14;100638.53;;;17.19;87.33
19096;BME280;9680;52.520;13.332;2023-07-31T04:26:41;100634.13;;;17.20;87.08
19096;BME280;9680;52.520;13.332;2023-07-31T04:29:08;100632.22;;;17.22;86.39
19096;BME280;9680;52.520;13.332;2023-07-31T04:31:35;100633.81;;;17.24;86.95
19096;BME280;9680;52.520;13.332;2023-07-31T04:34:03;100632.88;;;17.25;86.75
19096;BME280;9680;52.520;13.332;2023-07-31T04:36:30;100638.00;;;17.27;86.45
19096;BME280;9680;52.520;13.332;2023-07-31T04:38:56;100636.84;;;17.31;86.59
19096;BME280;9680;52.520;13.332;2023-07-31T04:41:23;100640.00;;;17.36;86.30
19096;BME280;9680;52.520;13.332;2023-07-31T04:43:50;100632.13;;;17.36;86.19
19096;BME280;9680;52.520;13.332;2023-07-31T04:46:16;100626.22;;;17.32;86.64
19096;BME280;9680;52.520;13.332;2023-07-31T04:48:43;100626.97;;;17.35;85.90
19096;BME280;9680;52.520;13.332;2023-07-31T04:51:11;100627.81;;;17.35;86.28
19096;BME280;9680;52.520;13.332;2023-07-31T04:53:38;100631.09;;;17.39;85.94
19096;BME280;9680;52.520;13.332;2023-07-31T04:56:05;100629.28;;;17.39;85.82
19096;BME280;9680;52.520;13.332;2023-07-31T04:58:31;100630.00;;;17.41;85.89
19096;BME280;9680;52.520;13.332;2023-07-31T05:00:58;100627.16;;;17.44;85.56
19096;BME280;9680;52.520;13.332;2023-07-31T05:03:25;100633.69;;;17.52;85.65
19096;BME280;9680;52.520;13.332;2023-07-31T05:05:52;100632.22;;;17.60;85.52
19096;BME280;9680;52.520;13.332;2023-07-31T05:08:20;100631.69;;;17.68;85.34
19096;BME280;9680;52.520;13.332;2023-07-31T05:10:46;100624.72;;;17.80;85.33
19096;BME280;9680;52.520;13.332;2023-07-31T05:13:14;100618.06;;;17.87;85.03
19096;BME280;9680;52.520;13.332;2023-07-31T05:15:41;100634.50;;;17.91;84.60
19096;BME280;9680;52.520;13.332;2023-07-31T05:18:08;100626.38;;;17.94;84.24
19096;BME280;9680;52.520;13.332;2023-07-31T05:20:34;100627.75;;;18.00;83.74
19096;BME280;9680;52.520;13.332;2023-07-31T05:23:01;100622.16;;;18.04;83.71
19096;BME280;9680;52.520;13.332;2023-07-31T05:25:29;100623.75;;;18.07;83.71
19096;BME280;9680;52.520;13.332;2023-07-31T05:27:55;100625.94;;;18.13;83.78
19096;BME280;9680;52.520;13.332;2023-07-31T05:30:22;100613.28;;;18.18;83.83
19096;BME280;9680;52.520;13.332;2023-07-31T05:32:49;100623.50;;;18.23;83.47
19096;BME280;9680;52.520;13.332;2023-07-31T05:35:16;100614.19;;;18.30;83.60
19096;BME280;9680;52.520;13.332;2023-07-31T05:37:43;100612.16;;;18.34;83.26
19096;BME280;9680;52.520;13.332;2023-07-31T05:40:10;100612.16;;;18.34;82.99
19096;BME280;9680;52.520;13.332;2023-07-31T05:42:38;100603.50;;;18.32;82.91
19096;BME280;9680;52.520;13.332;2023-07-31T05:45:06;100605.78;;;18.25;82.47
19096;BME280;9680;52.520;13.332;2023-07-31T05:47:33;100609.47;;;18.23;82.71
19096;BME280;9680;52.520;13.332;2023-07-31T05:50:00;100600.69;;;18.22;82.64
19096;BME280;9680;52.520;13.332;2023-07-31T05:52:26;100595.41;;;18.22;82.77
19096;BME280;9680;52.520;13.332;2023-07-31T05:54:54;100593.63;;;18.23;82.41
19096;BME280;9680;52.520;13.332;2023-07-31T05:57:21;100588.03;;;18.27;82.42
19096;BME280;9680;52.520;13.332;2023-07-31T05:59:49;100593.31;;;18.27;82.29
19096;BME280;9680;52.520;13.332;2023-07-31T06:02:15;100592.97;;;18.32;82.38
19096;BME280;9680;52.520;13.332;2023-07-31T06:04:42;100599.69;;;18.36;82.31
19096;BME280;9680;52.520;13.332;2023-07-31T06:07:10;100595.78;;;18.42;82.51
19096;BME280;9680;52.520;13.332;2023-07-31T06:09:37;100595.41;;;18.46;82.26
19096;BME280;9680;52.520;13.332;2023-07-31T06:12:04;100593.06;;;18.55;82.33
19096;BME280;9680;52.520;13.332;2023-07-31T06:14:31;100589.38;;;18.57;82.04
19096;BME280;9680;52.520;13.332;2023-07-31T06:16:59;100592.72;;;18.59;82.24
19096;BME280;9680;52.520;13.332;2023-07-31T06:19:26;100591.81;;;18.72;82.00
19096;BME280;9680;52.520;13.332;2023-07-31T06:21:53;100601.19;;;18.76;81.94
19096;BME280;9680;52.520;13.332;2023-07-31T06:24:19;100598.53;;;18.76;81.77
19096;BME280;9680;52.520;13.332;2023-07-31T06:26:47;100584.47;;;18.64;81.95
19096;BME280;9680;52.520;13.332;2023-07-31T06:29:14;100592.91;;;18.69;81.99
19096;BME280;9680;52.520;13.332;2023-07-31T06:31:41;100593.66;;;18.83;82.04
19096;BME280;9680;52.520;13.332;2023-07-31T06:34:09;100591.31;;;19.02;81.71
19096;BME280;9680;52.520;13.332;2023-07-31T06:36:35;100594.75;;;19.27;81.18
19096;BME280;9680;52.520;13.332;2023-07-31T06:39:02;100588.03;;;19.34;80.15
19096;BME280;9680;52.520;13.332;2023-07-31T06:41:29;100588.84;;;19.46;80.33
19096;BME280;9680;52.520;13.332;2023-07-31T06:43:56;100581.91;;;19.57;80.05
19096;BME280;9680;52.520;13.332;2023-07-31T06:46:22;100583.44;;;19.59;79.51
19096;BME280;9680;52.520;13.332;2023-07-31T06:48:49;100588.16;;;19.56;79.69
19096;BME280;9680;52.520;13.332;2023-07-31T06:51:17;100590.53;;;19.47;79.16
19096;BME280;9680;52.520;13.332;2023-07-31T06:53:44;100579.38;;;19.44;79.51
19096;BME280;9680;52.520;13.332;2023-07-31T06:56:11;100581.16;;;19.55;79.62
19096;BME280;9680;52.520;13.332;2023-07-31T06:58:38;100579.22;;;19.79;78.97
19096;BME280;9680;52.520;13.332;2023-07-31T07:01:05;100583.91;;;20.10;78.60
19096;BME280;9680;52.520;13.332;2023-07-31T07:03:32;100585.66;;;20.21;77.13
19096;BME280;9680;52.520;13.332;2023-07-31T07:05:59;100583.94;;;19.99;76.37
19096;BME280;9680;52.520;13.332;2023-07-31T07:08:27;100590.78;;;19.78;77.01
19096;BME280;9680;52.520;13.332;2023-07-31T07:10:54;100589.84;;;19.57;77.35
19096;BME280;9680;52.520;13.332;2023-07-31T07:13:21;100592.69;;;19.42;77.95
19096;BME280;9680;52.520;13.332;2023-07-31T07:15:48;100592.69;;;19.42;78.30
19096;BME280;9680;52.520;13.332;2023-07-31T07:18:16;100589.47;;;19.50;78.62
19096;BME280;9680;52.520;13.332;2023-07-31T07:20:46;100592.09;;;19.61;78.53
19096;BME280;9680;52.520;13.332;2023-07-31T07:23:15;100584.31;;;19.60;78.20
19096;BME280;9680;52.520;13.332;2023-07-31T07:25:43;100591.97;;;19.52;78.22
19096;BME280;9680;52.520;13.332;2023-07-31T07:28:10;100597.88;;;19.44;78.50
19096;BME280;9680;52.520;13.332;2023-07-31T07:30:37;100589.09;;;19.43;78.64
19096;BME280;9680;52.520;13.332;2023-07-31T07:33:04;100589.47;;;19.39;78.79
19096;BME280;9680;52.520;13.332;2023-07-31T07:35:33;100584.75;;;19.31;78.79
19096;BME280;9680;52.520;13.332;2023-07-31T07:37:59;100585.25;;;19.36;79.36
19096;BME280;9680;52.520;13.332;2023-07-31T07:40:26;100584.91;;;19.41;79.09
19096;BME280;9680;52.520;13.332;2023-07-31T07:42:54;100580.09;;;19.57;79.16
19096;BME280;9680;52.520;13.332;2023-07-31T07:45:21;100572.63;;;19.74;78.50
19096;BME280;9680;52.520;13.332;2023-07-31T07:47:48;100569.72;;;19.77;77.86
19096;BME280;9680;52.520;13.332;2023-07-31T07:50:15;100572.88;;;19.71;78.02
19096;BME280;9680;52.520;13.332;2023-07-31T07:52:42;100565.53;;;19.52;78.05
19096;BME280;9680;52.520;13.332;2023-07-31T07:55:08;100565.69;;;19.39;78.48
19096;BME280;9680;52.520;13.332;2023-07-31T07:57:35;100568.69;;;19.23;79.39
19096;BME280;9680;52.520;13.332;2023-07-31T08:00:05;100572.28;;;19.10;80.42
19096;BME280;9680;52.520;13.332;2023-07-31T08:02:39;100573.34;;;19.08;81.03
19096;BME280;9680;52.520;13.332;2023-07-31T08:05:06;100568.19;;;19.17;81.40
19096;BME280;9680;52.520;13.332;2023-07-31T08:07:34;100569.41;;;19.25;81.41
19096;BME280;9680;52.520;13.332;2023-07-31T08:10:00;100563.50;;;19.21;81.18
19096;BME280;9680;52.520;13.332;2023-07-31T08:12:27;100567.38;;;19.28;81.00
19096;BME280;9680;52.520;13.332;2023-07-31T08:14:54;100559.69;;;19.25;81.10
19096;BME280;9680;52.520;13.332;2023-07-31T08:17:22;100543.94;;;19.35;81.27
19096;BME280;9680;52.520;13.332;2023-07-31T08:19:50;100554.53;;;19.58;81.37
19096;BME280;9680;52.520;13.332;2023-07-31T08:22:17;100552.09;;;19.77;80.93
19096;BME280;9680;52.520;13.332;2023-07-31T08:24:43;100552.06;;;19.89;80.14
19096;BME280;9680;52.520;13.332;2023-07-31T08:27:10;100553.53;;;19.82;79.83
19096;BME280;9680;52.520;13.332;2023-07-31T08:29:37;100551.63;;;19.72;79.56
19096;BME280;9680;52.520;13.332;2023-07-31T08:32:04;100553.31;;;19.50;79.80
19096;BME280;9680;52.520;13.332;2023-07-31T08:34:32;100557.41;;;19.43;80.37
19096;BME280;9680;52.520;13.332;2023-07-31T08:36:59;100555.13;;;19.39;80.80
19096;BME280;9680;52.520;13.332;2023-07-31T08:39:26;100549.69;;;19.52;81.05
19096;BME280;9680;52.520;13.332;2023-07-31T08:41:58;100551.47;;;19.74;80.63
19096;BME280;9680;52.520;13.332;2023-07-31T08:44:25;100545.84;;;19.90;80.21
19096;BME280;9680;52.520;13.332;2023-07-31T08:46:51;100553.94;;;20.10;79.44
19096;BME280;9680;52.520;13.332;2023-07-31T08:49:20;100550.44;;;20.20;79.11
19096;BME280;9680;52.520;13.332;2023-07-31T08:51:49;100550.53;;;20.30;78.74
19096;BME280;9680;52.520;13.332;2023-07-31T08:54:16;100551.97;;;20.34;78.38
19096;BME280;9680;52.520;13.332;2023-07-31T08:56:43;100551.63;;;20.28;78.28
19096;BME280;9680;52.520;13.332;2023-07-31T08:59:11;100541.13;;;20.37;78.40
19096;BME280;9680;52.520;13.332;2023-07-31T09:01:43;100546.88;;;20.43;77.62
19096;BME280;9680;52.520;13.332;2023-07-31T09:04:10;100543.13;;;20.45;77.71
19096;BME280;9680;52.520;13.332;2023-07-31T09:06:40;100551.75;;;20.47;77.50
19096;BME280;9680;52.520;13.332;2023-07-31T09:09:08;100543.38;;;20.42;76.22
19096;BME280;9680;52.520;13.332;2023-07-31T09:11:35;100546.78;;;20.33;77.09
19096;BME280;9680;52.520;13.332;2023-07-31T09:14:03;100547.63;;;20.33;77.02
19096;BME280;9680;52.520;13.332;2023-07-31T09:16:34;100543.13;;;20.24;77.24
19096;BME280;9680;52.520;13.332;2023-07-31T09:19:01;100539.50;;;20.14;77.49
19096;BME280;9680;52.520;13.332;2023-07-31T09:21:28;100541.38;;;20.02;77.89
19096;BME280;9680;52.520;13.332;2023-07-31T09:23:55;100536.22;;;19.89;78.33
19096;BME280;9680;52.520;13.332;2023-07-31T09:26:31;100544.03;;;19.79;78.88
19096;BME280;9680;52.520;13.332;2023-07-31T09:28:58;100535.53;;;19.75;78.94
19096;BME280;9680;52.520;13.332;2023-07-31T09:31:33;100547.19;;;19.61;79.64
19096;BME280;9680;52.520;13.332;2023-07-31T09:34:00;100549.22;;;19.46;79.66
19096;BME280;9680;52.520;13.332;2023-07-31T09:36:29;100560.41;;;19.27;80.24
19096;BME280;9680;52.520;13.332;2023-07-31T09:39:01;100547.56;;;19.23;81.30
19096;BME280;9680;52.520;13.332;2023-07-31T09:41:30;100545.78;;;19.34;81.54
19096;BME280;9680;52.520;13.332;2023-07-31T09:43:57;100551.16;;;19.56;81.32
19096;BME280;9680;52.520;13.332;2023-07-31T09:46:26;100546.19;;;19.74;81.03
19096;BME280;9680;52.520;13.332;2023-07-31T09:49:03;100534.53;;;19.88;80.52
19096;BME280;9680;52.520;13.332;2023-07-31T09:51:30;100536.34;;;19.99;80.10
19096;BME280;9680;52.520;13.332;2023-07-31T09:53:57;100539.56;;;20.02;80.05
19096;BME280;9680;52.520;13.332;2023-07-31T09:56:24;100543.28;;;20.11;79.53
19096;BME280;9680;52.520;13.332;2023-07-31T09:58:54;100526.81;;;20.07;78.70
19096;BME280;9680;52.520;13.332;2023-07-31T10:01:21;100526.59;;;19.99;78.71
19096;BME280;9680;52.520;13.332;2023-07-31T10:03:48;100525.78;;;19.99;79.03
19096;BME280;9680;52.520;13.332;2023-07-31T10:06:16;100526.13;;;20.27;79.45
19096;BME280;9680;52.520;13.332;2023-07-31T10:08:47;100519.91;;;20.70;78.34
19096;BME280;9680;52.520;13.332;2023-07-31T10:11:16;100525.16;;;21.03;77.05
19096;BME280;9680;52.520;13.332;2023-07-31T10:13:44;100521.56;;;21.14;75.99
19096;BME280;9680;52.520;13.332;2023-07-31T10:16:12;100526.06;;;21.23;75.22
19096;BME280;9680;52.520;13.332;2023-07-31T10:18:40;100519.31;;;21.09;74.64
19096;BME280;9680;52.520;13.332;2023-07-31T10:21:07;100513.47;;;20.84;74.88
19096;BME280;9680;52.520;13.332;2023-07-31T10:23:34;100520.34;;;20.54;75.47
19096;BME280;9680;52.520;13.332;2023-07-31T10:26:02;100517.63;;;20.44;76.33
19096;BME280;9680;52.520;13.332;2023-07-31T10:28:32;100510.69;;;20.64;76.93
19096;BME280;9680;52.520;13.332;2023-07-31T10:30:59;100502.81;;;20.95;76.04
19096;BME280;9680;52.520;13.332;2023-07-31T10:33:28;100508.03;;;21.07;75.33
19096;BME280;9680;52.520;13.332;2023-07-31T10:36:13;100503.44;;;21.19;75.46
19096;BME280;9680;52.520;13.332;2023-07-31T10:38:40;100499.88;;;21.30;74.84
19096;BME280;9680;52.520;13.332;2023-07-31T10:41:08;100501.00;;;21.37;74.08
19096;BME280;9680;52.520;13.332;2023-07-31T10:43:36;100491.69;;;21.52;74.26
19096;BME280;9680;52.520;13.332;2023-07-31T10:46:06;100493.34;;;22.04;73.72
19096;BME280;9680;52.520;13.332;2023-07-31T10:48:35;100486.50;;;22.51;71.88
19096;BME280;9680;52.520;13.332;2023-07-31T10:51:07;100485.84;;;22.87;69.65
19096;BME280;9680;52.520;13.332;2023-07-31T10:53:36;100465.41;;;22.97;69.46
19096;BME280;9680;52.520;13.332;2023-07-31T10:56:03;100459.31;;;22.87;69.15
19096;BME280;9680;52.520;13.332;2023-07-31T10:58:31;100456.34;;;22.90;68.87
19096;BME280;9680;52.520;13.332;2023-07-31T11:00:59;100451.34;;;22.87;67.80
19096;BME280;9680;52.520;13.332;2023-07-31T11:03:27;100450.53;;;23.14;67.02
19096;BME280;9680;52.520;13.332;2023-07-31T11:06:08;100452.78;;;23.37;65.92
19096;BME280;9680;52.520;13.332;2023-07-31T11:08:38;100441.94;;;23.48;65.75
19096;BME280;9680;52.520;13.332;2023-07-31T11:11:08;100445.88;;;23.26;65.43
19096;BME280;9680;52.520;13.332;2023-07-31T11:13:41;100451.03;;;22.90;65.82
19096;BME280;9680;52.520;13.332;2023-07-31T11:16:08;100441.22;;;22.62;66.46
19096;BME280;9680;52.520;13.332;2023-07-31T11:18:35;100450.84;;;22.63;66.32
19096;BME280;9680;52.520;13.332;2023-07-31T11:21:02;100449.44;;;22.69;65.44
19096;BME280;9680;52.520;13.332;2023-07-31T11:23:30;100456.16;;;22.63;66.00
19096;BME280;9680;52.520;13.332;2023-07-31T11:25:59;100443.00;;;22.72;64.37
19096;BME280;9680;52.520;13.332;2023-07-31T11:28:31;100445.72;;;22.52;64.81
19096;BME280;9680;52.520;13.332;2023-07-31T11:30:59;100449.34;;;22.41;65.76
19096;BME280;9680;52.520;13.332;2023-07-31T11:33:26;100436.53;;;22.26;65.69
19096;BME280;9680;52.520;13.332;2023-07-31T11:35:53;100438.06;;;22.09;65.41
19096;BME280;9680;52.520;13.332;2023-07-31T11:38:23;100452.16;;;22.00;66.29
19096;BME280;9680;52.520;13.332;2023-07-31T11:40:52;100452.19;;;22.10;66.14
19096;BME280;9680;52.520;13.332;2023-07-31T11:43:20;100452.03;;;22.21;65.63
19096;BME280;9680;52.520;13.332;2023-07-31T11:45:48;100451.22;;;22.21;64.99
19096;BME280;9680;52.520;13.332;2023-07-31T11:48:20;100447.84;;;22.09;64.31
19096;BME280;9680;52.520;13.332;2023-07-31T11:50:49;100450.06;;;22.14;64.32
19096;BME280;9680;52.520;13.332;2023-07-31T11:53:17;100438.34;;;22.16;64.23
19096;BME280;9680;52.520;13.332;2023-07-31T11:55:45;100440.28;;;22.34;63.60
19096;BME280;9680;52.520;13.332;2023-07-31T11:58:15;100437.50;;;22.35;63.52
19096;BME280;9680;52.520;13.332;2023-07-31T12:00:43;100437.78;;;22.32;63.64
19096;BME280;9680;52.520;13.332;2023-07-31T12:03:10;100437.78;;;22.32;63.54
19096;BME280;9680;52.520;13.332;2023-07-31T12:05:37;100432.75;;;22.19;63.90
19096;BME280;9680;52.520;13.332;2023-07-31T12:08:09;100427.19;;;22.13;64.14
19096;BME280;9680;52.520;13.332;2023-07-31T12:10:36;100423.28;;;22.07;64.16
19096;BME280;9680;52.520;13.332;2023-07-31T12:13:04;100434.56;;;22.29;64.14
19096;BME280;9680;52.520;13.332;2023-07-31T12:15:38;100429.50;;;22.55;63.81
19096;BME280;9680;52.520;13.332;2023-07-31T12:18:06;100430.28;;;23.03;63.45
19096;BME280;9680;52.520;13.332;2023-07-31T12:20:34;100423.88;;;23.52;62.17
19096;BME280;9680;52.520;13.332;2023-07-31T12:23:02;100424.19;;;23.85;60.45
19096;BME280;9680;52.520;13.332;2023-07-31T12:25:30;100414.81;;;23.99;59.67
19096;BME280;9680;52.520;13.332;2023-07-31T12:27:58;100421.63;;;23.75;59.24
19096;BME280;9680;52.520;13.332;2023-07-31T12:30:32;100423.44;;;23.56;59.22
19096;BME280;9680;52.520;13.332;2023-07-31T12:33:04;100414.69;;;23.64;59.17
19096;BME280;9680;52.520;13.332;2023-07-31T12:35:36;100399.88;;;23.80;59.17
19096;BME280;9680;52.520;13.332;2023-07-31T12:38:03;100404.31;;;23.89;58.30
19096;BME280;9680;52.520;13.332;2023-07-31T12:40:30;100393.44;;;24.01;57.92
19096;BME280;9680;52.520;13.332;2023-07-31T12:42:57;100397.03;;;24.18;57.62
19096;BME280;9680;52.520;13.332;2023-07-31T12:45:23;100392.50;;;24.36;57.30
19096;BME280;9680;52.520;13.332;2023-07-31T12:47:50;100390.50;;;24.30;56.43
19096;BME280;9680;52.520;13.332;2023-07-31T12:50:18;100379.97;;;24.28;57.11
19096;BME280;9680;52.520;13.332;2023-07-31T12:52:45;100381.06;;;24.18;57.18
19096;BME280;9680;52.520;13.332;2023-07-31T12:55:12;100375.88;;;23.90;57.06